Impacts TAF Board INFO
FOR SITUATIONAL AWARENESS. NOT TO BE USED FOR FLIGHT PLANNING PURPOSES.
IDs:

KSEA - Seattle-Tacoma Intl, WA, US

Issued at 1742 UTC 16 Aug 2017
Updated at 1924 UTC 16 Aug 2017
Potential Impact None Slight Moderate High
Time1853Z 16/20Z 16/21Z 16/22Z 16/23Z 17/00Z 17/01Z 17/02Z 17/03Z 17/04Z 17/05Z 17/06Z 17/07Z 17/08Z>>
Type OBS PRVL PRVL PRVL PRVL PRVL PRVL PRVL PRVL PRVL PRVL PRVL PRVL PRVL
VIS 10 >6 >6 >6 >6 >6 >6 >6 >6 >6 >6 >6 >6 >6
CIG 95 100 100 100 100 100 100 100 50 50 50 50 50 50
Cover BKN BKN BKN BKN BKN BKN BKN BKN BKN BKN BKN BKN BKN BKN
FltCat VFR VFR VFR VFR VFR VFR VFR VFR VFR VFR VFR VFR VFR VFR
WX -- -- -- -- -- -- -- -- -- -- -- -- -- --
WDir 200 240 240 240 240 280 280 280 320 320 320 10 10 10
WSpd 4 8 8 8 8 7 7 7 8 8 8 6 6 6
WGst -- -- -- -- -- -- -- -- -- -- -- -- -- --

Raw TAF
KSEA 161742Z 1618/1724 24008KT P6SM FEW050 BKN100
  FM170000 28007KT P6SM SCT050 BKN100
  FM170300 32008KT P6SM BKN050
  FM170600 01006KT P6SM FEW022 BKN050
  FM170900 VRB03KT P6SM OVC012
  FM172000 26006KT P6SM FEW030


Raw METAR
KSEA 161853Z 20004KT 10SM BKN095 BKN250 21/11 A3012 RMK AO2 SLP204 T02060106
KSEA 161753Z VRB04KT 10SM FEW120 FEW250 19/09 A3011 RMK AO2 SLP201 T01940094 10194 20139 50003
KSEA 161653Z 24008KT 10SM FEW120 FEW250 17/11 A3012 RMK AO2 SLP204 T01720106

METAR Board
Radar Display
Forecast Discussion

FOR SITUATIONAL AWARENESS. NOT TO BE USED FOR FLIGHT PLANNING PURPOSES.